Salzburg, Austria
Current Conditions -  °F | °C
As of 10:20 AM on Friday 31 Oct 2014 (Local Time) from LOWS Reporting Station
Clear Clear  
Wind Chill: 50°   Ceiling: Unl
Heat Index: 50°   Visibility: 6mi
Dew Point: 43°   Wind: 6mph
Humidity: 76%   Direction: 170°S
Pressure: 30.33"   Gusts: NA
Location:  47.81°N, 13.04°E
Report Text: LOWS 310820Z 17005KT 130V190 CAVOK 10/06 Q1027 NOSIG
Loading
Personal Weather Stations






























Interactive Weather Map
Tropical Storm Tracking
New forecast layout! Learn more

10-Day Weather Forecast

Advertisements
Track Severe Weather on mobile